createdAt,value
2023-05-22T00:06:48.132Z,86.6445
2023-05-22T00:07:50.837Z,86.2759
2023-05-22T00:08:53.616Z,86.2300
2023-05-22T00:09:56.206Z,86.6438
2023-05-22T00:10:58.277Z,86.7553
2023-05-22T00:12:00.829Z,87.0040
2023-05-22T00:13:03.290Z,87.3115
2023-05-22T00:14:05.219Z,87.8144
2023-05-22T00:16:09.818Z,87.4449
2023-05-22T00:17:12.460Z,87.7046
2023-05-22T00:18:15.085Z,87.4090
2023-05-22T00:25:27.923Z,91.4529
2023-05-22T00:26:30.480Z,92.1154
2023-05-22T00:27:31.503Z,92.7980
2023-05-22T00:28:31.799Z,93.1745
2023-05-22T00:31:34.711Z,94.1625
2023-05-22T00:32:36.912Z,94.6453
2023-05-22T00:33:38.983Z,94.9418
2023-05-22T00:34:40.898Z,95.0301
2023-05-22T00:36:44.542Z,95.7187
2023-05-22T00:37:46.444Z,95.8108
2023-05-22T00:38:55.710Z,96.2570
2023-05-22T00:41:08.485Z,97.2639
2023-05-22T00:41:54.343Z,97.4135
2023-05-22T00:42:56.921Z,97.3881
2023-05-22T00:43:59.444Z,97.3625
2023-05-22T00:45:01.340Z,97.5309
2023-05-22T00:46:03.857Z,97.6644
2023-05-22T00:47:06.416Z,97.8378
2023-05-22T00:48:08.953Z,98.1996
2023-05-22T00:49:10.824Z,98.4874
2023-05-22T00:50:12.725Z,98.9202
2023-05-22T00:51:14.813Z,99.1719
2023-05-22T00:52:17.068Z,99.3602
2023-05-22T00:53:19.038Z,99.5404
2023-05-22T00:54:20.891Z,99.6486
2023-05-22T00:55:22.786Z,99.7018
2023-05-22T00:56:25.560Z,99.8291
2023-05-22T00:58:26.697Z,99.8238
2023-05-22T00:59:28.596Z,99.8267
2023-05-22T01:01:32.243Z,99.8860
2023-05-22T01:02:34.192Z,99.8521
2023-05-22T01:03:38.020Z,99.7950
2023-05-22T01:04:38.080Z,99.8118
2023-05-22T01:05:42.173Z,99.7590
2023-05-22T01:06:44.033Z,99.6918
2023-05-22T01:07:46.616Z,99.7033
2023-05-22T01:08:49.370Z,99.6786
2023-05-22T01:09:51.982Z,99.6160
2023-05-22T01:10:56.465Z,99.6381
2023-05-22T01:15:01.988Z,99.1223
2023-05-22T01:22:14.607Z,98.0243
2023-05-22T01:23:16.517Z,98.1623
2023-05-22T01:24:18.464Z,98.3343
2023-05-22T01:25:20.371Z,98.1386
2023-05-22T01:26:22.756Z,98.2558
2023-05-22T01:27:25.465Z,98.5002
2023-05-22T01:28:28.402Z,98.7042
2023-05-22T01:29:30.994Z,98.7219
2023-05-22T01:30:33.090Z,98.9278
2023-05-22T01:31:41.261Z,99.0958
2023-05-22T01:32:41.485Z,99.1065
2023-05-22T01:45:02.271Z,99.7164
2023-05-22T01:46:04.229Z,99.8347
2023-05-22T01:47:06.888Z,99.8512
2023-05-22T01:49:09.418Z,99.9704
2023-05-22T01:50:12.118Z,99.9845
2023-05-22T01:51:14.081Z,99.9482
2023-05-22T01:52:16.011Z,99.9891
2023-05-22T01:53:18.243Z,100.0000
2023-05-22T01:54:20.292Z,100.0000
2023-05-22T01:55:22.213Z,100.0000
2023-05-22T01:56:24.612Z,100.0000
2023-05-22T01:57:27.248Z,100.0000
2023-05-22T01:58:29.137Z,100.0000
2023-05-22T01:59:31.079Z,100.0000
2023-05-22T02:00:33.725Z,100.0000
2023-05-22T02:01:35.654Z,100.0000
2023-05-22T02:02:37.795Z,100.0000
2023-05-22T02:03:39.779Z,100.0000
2023-05-22T02:04:41.750Z,100.0000
2023-05-22T02:05:43.688Z,100.0000
2023-05-22T02:07:47.374Z,100.0000
2023-05-22T02:08:49.265Z,100.0000
2023-05-22T02:09:51.200Z,100.0000
2023-05-22T02:11:54.848Z,100.0000
2023-05-22T02:12:56.743Z,100.0000
2023-05-22T02:13:58.701Z,100.0000
2023-05-22T02:15:01.376Z,100.0000
2023-05-22T02:16:04.121Z,100.0000
2023-05-22T02:17:06.095Z,100.0000
2023-05-22T02:18:08.070Z,100.0000
2023-05-22T02:19:10.398Z,100.0000
2023-05-22T02:20:12.686Z,100.0000
2023-05-22T02:21:15.429Z,100.0000
2023-05-22T02:25:21.418Z,100.0000
2023-05-22T02:26:24.089Z,100.0000
2023-05-22T02:27:26.003Z,100.0000
2023-05-22T02:28:27.950Z,100.0000
2023-05-22T02:30:33.027Z,100.0000
2023-05-22T02:31:35.902Z,100.0000
2023-05-22T02:36:45.124Z,100.0000
2023-05-22T02:38:47.911Z,100.0000
2023-05-22T02:39:49.819Z,100.0000
2023-05-22T02:40:51.976Z,100.0000
2023-05-22T02:52:15.020Z,100.0000
2023-05-22T02:53:17.841Z,100.0000
2023-05-22T02:54:19.751Z,100.0000
2023-05-22T02:55:20.558Z,100.0000
2023-05-22T02:56:23.353Z,100.0000
2023-05-22T02:57:25.791Z,100.0000
2023-05-22T02:58:25.335Z,100.0000
2023-05-22T02:59:28.066Z,100.0000
2023-05-22T03:00:30.005Z,100.0000
2023-05-22T03:04:39.786Z,100.0000
2023-05-22T03:05:41.732Z,100.0000
2023-05-22T03:06:43.859Z,100.0000
2023-05-22T03:07:48.664Z,100.0000
2023-05-22T03:08:48.658Z,100.0000
2023-05-22T03:09:51.135Z,100.0000
2023-05-22T03:10:53.657Z,100.0000
2023-05-22T03:20:12.211Z,100.0000
2023-05-22T03:21:14.877Z,100.0000
2023-05-22T03:22:16.806Z,100.0000
2023-05-22T03:23:19.710Z,100.0000
2023-05-22T03:24:20.228Z,100.0000
2023-05-22T03:25:23.070Z,100.0000
2023-05-22T03:26:23.239Z,100.0000
2023-05-22T03:32:30.535Z,100.0000
2023-05-22T03:33:33.122Z,100.0000
2023-05-22T03:34:35.906Z,100.0000
2023-05-22T03:35:37.163Z,100.0000
2023-05-22T03:36:39.677Z,100.0000
2023-05-22T03:38:42.138Z,100.0000
2023-05-22T03:39:46.096Z,100.0000
2023-05-22T03:40:45.410Z,100.0000
2023-05-22T03:42:50.008Z,100.0000
2023-05-22T03:43:52.114Z,100.0000
2023-05-22T03:44:54.102Z,100.0000
2023-05-22T03:45:57.070Z,100.0000
2023-05-22T03:46:57.241Z,100.0000
2023-05-22T03:47:59.832Z,100.0000
2023-05-22T03:49:01.764Z,100.0000
2023-05-22T03:50:05.593Z,100.0000
2023-05-22T03:52:06.844Z,100.0000
2023-05-22T03:53:08.982Z,100.0000
2023-05-22T03:54:11.545Z,100.0000
2023-05-22T03:55:14.348Z,100.0000
2023-05-22T03:56:16.948Z,100.0000
2023-05-22T03:59:21.667Z,100.0000
2023-05-22T04:00:36.479Z,100.0000
2023-05-22T04:01:24.484Z,100.0000
2023-05-22T04:02:24.611Z,100.0000
2023-05-22T04:03:24.711Z,100.0000
2023-05-22T04:04:27.733Z,100.0000
2023-05-22T04:05:29.812Z,100.0000
2023-05-22T04:06:32.108Z,100.0000
2023-05-22T04:07:34.730Z,100.0000
2023-05-22T04:08:37.718Z,100.0000
2023-05-22T04:09:37.628Z,100.0000
2023-05-22T04:24:05.244Z,100.0000
2023-05-22T04:25:07.124Z,100.0000
2023-05-22T04:26:12.760Z,100.0000
2023-05-22T04:27:14.619Z,100.0000
2023-05-22T04:28:16.495Z,100.0000
2023-05-22T04:29:18.443Z,100.0000
2023-05-22T04:30:21.026Z,100.0000
2023-05-22T04:31:23.023Z,100.0000
2023-05-22T04:33:27.291Z,100.0000
2023-05-22T04:34:29.894Z,100.0000
2023-05-22T04:35:31.788Z,100.0000
2023-05-22T04:36:34.267Z,100.0000
2023-05-22T04:37:36.163Z,100.0000
2023-05-22T04:38:38.067Z,100.0000
2023-05-22T04:39:39.930Z,100.0000
2023-05-22T04:41:44.436Z,100.0000
2023-05-22T04:42:46.371Z,100.0000
2023-05-22T04:43:48.361Z,100.0000
2023-05-22T04:44:50.337Z,100.0000
2023-05-22T04:45:52.289Z,100.0000
2023-05-22T04:46:54.234Z,100.0000
2023-05-22T04:47:56.256Z,100.0000
2023-05-22T04:48:58.234Z,100.0000
2023-05-22T04:51:01.967Z,100.0000
2023-05-22T04:52:04.882Z,100.0000
2023-05-22T04:53:07.395Z,100.0000
2023-05-22T04:54:09.316Z,100.0000
2023-05-22T04:55:11.237Z,100.0000
2023-05-22T04:56:16.560Z,100.0000
2023-05-22T04:58:15.572Z,100.0000
2023-05-22T04:59:17.736Z,100.0000
2023-05-22T05:00:20.279Z,100.0000
2023-05-22T05:01:22.325Z,100.0000
2023-05-22T05:04:28.628Z,100.0000
2023-05-22T05:05:30.605Z,100.0000
2023-05-22T05:06:33.256Z,100.0000
2023-05-22T05:07:35.221Z,100.0000
2023-05-22T05:08:37.135Z,100.0000
2023-05-22T05:09:39.671Z,100.0000
2023-05-22T05:10:41.917Z,100.0000
2023-05-22T05:11:43.827Z,100.0000
2023-05-22T05:12:46.389Z,100.0000
2023-05-22T05:13:48.934Z,100.0000
2023-05-22T05:14:51.713Z,100.0000
2023-05-22T05:16:52.779Z,99.8301
2023-05-22T05:19:58.354Z,97.9552
2023-05-22T05:21:00.597Z,97.2537
2023-05-22T05:24:06.623Z,95.8135
2023-05-22T05:25:10.883Z,96.0573
2023-05-22T05:26:10.704Z,95.8360
2023-05-22T05:27:12.915Z,95.5441
2023-05-22T05:28:15.647Z,93.4903
2023-05-22T05:29:17.887Z,92.6920
2023-05-22T05:30:20.850Z,92.1450
2023-05-22T05:31:20.707Z,92.3026
2023-05-22T05:32:23.533Z,92.5877
2023-05-22T05:34:25.116Z,90.6132
2023-05-22T05:35:27.016Z,89.6554
2023-05-22T05:36:29.476Z,91.3939
2023-05-22T05:37:32.163Z,89.6429
2023-05-22T05:38:34.060Z,88.8198
2023-05-22T05:40:37.929Z,88.7045
2023-05-22T05:41:39.878Z,88.1898
2023-05-22T05:42:41.833Z,88.7333
2023-05-22T05:43:43.797Z,88.7542
2023-05-22T05:44:45.713Z,87.8851
2023-05-22T05:45:48.388Z,86.3926
2023-05-22T05:46:50.949Z,85.8876
2023-05-22T05:47:52.938Z,85.6530
2023-05-22T05:48:54.968Z,84.5511
2023-05-22T05:50:59.791Z,85.7402
2023-05-22T05:52:02.347Z,83.9944
2023-05-22T05:53:04.312Z,87.6798
2023-05-22T05:54:06.269Z,83.5766
2023-05-22T05:55:08.179Z,81.9254
2023-05-22T05:57:12.833Z,79.9580
2023-05-22T05:58:15.405Z,81.2033
2023-05-22T05:59:17.362Z,81.7605
2023-05-22T06:00:19.349Z,81.6245
2023-05-22T06:01:21.351Z,80.8364
2023-05-22T06:02:23.956Z,80.4128
2023-05-22T06:03:28.353Z,82.2245
2023-05-22T06:04:27.580Z,80.1849
2023-05-22T06:06:31.435Z,79.5574
2023-05-22T06:07:33.360Z,79.3416
2023-05-22T06:08:35.286Z,80.6313
2023-05-22T06:09:37.186Z,79.7683
2023-05-22T06:10:39.937Z,80.3678
2023-05-22T06:11:39.897Z,77.8936
2023-05-22T06:12:41.878Z,78.6989
2023-05-22T06:13:44.678Z,79.5181
2023-05-22T06:14:47.225Z,78.4088
2023-05-22T06:15:49.748Z,81.5566
2023-05-22T06:16:52.441Z,80.5635
2023-05-22T06:17:54.446Z,77.5479
2023-05-22T06:18:56.505Z,81.4803
2023-05-22T06:19:59.079Z,79.7817
2023-05-22T06:21:01.036Z,75.6603
2023-05-22T06:22:02.973Z,77.1985
2023-05-22T06:23:04.901Z,78.2716
2023-05-22T06:24:07.477Z,76.1744
2023-05-22T06:25:10.006Z,74.6938
2023-05-22T06:26:12.741Z,74.9528
2023-05-22T06:27:15.376Z,74.6442
2023-05-22T06:28:17.305Z,75.5671
2023-05-22T06:29:19.284Z,78.1049
2023-05-22T06:30:38.302Z,77.5511
2023-05-22T06:40:38.739Z,72.7468
2023-05-22T06:41:41.416Z,75.2916
2023-05-22T06:42:44.313Z,74.0701
2023-05-22T06:43:46.869Z,75.0688
2023-05-22T06:44:48.853Z,73.7469
2023-05-22T06:46:52.566Z,72.8531
2023-05-22T06:47:54.605Z,73.7809
2023-05-22T06:49:58.343Z,73.4244
2023-05-22T06:51:00.268Z,72.7263
2023-05-22T06:52:04.489Z,72.1306
2023-05-22T06:53:05.279Z,72.6381
2023-05-22T06:54:07.365Z,71.7367
2023-05-22T06:55:09.575Z,73.9934
2023-05-22T06:56:12.130Z,72.8077
2023-05-22T06:57:14.106Z,71.9835
2023-05-22T06:58:16.016Z,75.3323
2023-05-22T07:00:21.782Z,71.9712
2023-05-22T07:01:21.193Z,70.2785
2023-05-22T07:02:23.146Z,71.1672
2023-05-22T07:05:29.857Z,70.4927
2023-05-22T07:08:32.839Z,69.4392
2023-05-22T07:09:34.824Z,69.5139
2023-05-22T07:10:37.075Z,69.9797
2023-05-22T07:11:39.365Z,70.4222
2023-05-22T07:12:41.356Z,69.2903
2023-05-22T07:13:43.531Z,71.2325
2023-05-22T07:14:45.469Z,71.3321
2023-05-22T07:15:47.427Z,70.6935
2023-05-22T07:16:49.557Z,71.6138
2023-05-22T07:17:51.626Z,72.1751
2023-05-22T07:18:53.708Z,71.4080
2023-05-22T07:19:55.656Z,71.1025
2023-05-22T07:20:57.665Z,73.4960
2023-05-22T07:21:59.565Z,71.3422
2023-05-22T07:23:01.534Z,70.3768
2023-05-22T07:24:03.485Z,69.3231
2023-05-22T07:25:05.438Z,69.2540
2023-05-22T07:26:07.409Z,70.7731
2023-05-22T07:27:09.370Z,71.1402
2023-05-22T07:28:11.277Z,72.6748
2023-05-22T07:29:13.231Z,69.5926
2023-05-22T07:30:15.241Z,69.4161
2023-05-22T07:31:17.198Z,68.4240
2023-05-22T07:32:19.235Z,66.3829
2023-05-22T07:33:21.240Z,69.1062
2023-05-22T07:34:23.187Z,67.4220
2023-05-22T07:35:25.177Z,69.2433
2023-05-22T07:36:27.111Z,69.6550
2023-05-22T07:37:29.064Z,66.3446
2023-05-22T07:38:31.033Z,67.8411
2023-05-22T07:39:33.002Z,68.7749
2023-05-22T07:40:34.958Z,67.2933
2023-05-22T07:41:36.935Z,67.3897
2023-05-22T07:42:38.878Z,68.8171
2023-05-22T07:43:40.839Z,68.5125
2023-05-22T07:44:42.816Z,70.8537
2023-05-22T07:45:44.976Z,65.7230
2023-05-22T07:46:46.983Z,64.5977
2023-05-22T07:47:48.972Z,66.7723
2023-05-22T07:48:50.921Z,66.8186
2023-05-22T07:49:53.131Z,66.5601
2023-05-22T07:50:55.127Z,67.6508
2023-05-22T07:51:57.080Z,67.5113
2023-05-22T07:52:59.028Z,66.0318
2023-05-22T07:54:01.161Z,67.3376
2023-05-22T07:59:10.805Z,66.2437
2023-05-22T08:00:12.865Z,64.9198
2023-05-22T08:01:12.975Z,66.2726
2023-05-22T08:02:15.027Z,64.4031
2023-05-22T08:03:17.845Z,67.6582
2023-05-22T08:04:17.541Z,64.1309
2023-05-22T08:11:30.963Z,62.6888
2023-05-22T08:12:32.987Z,61.6011
2023-05-22T08:13:35.285Z,62.6335
2023-05-22T08:14:37.658Z,64.3288
2023-05-22T08:15:39.713Z,64.7440
2023-05-22T08:16:41.924Z,64.8876
2023-05-22T08:19:48.008Z,63.2453
2023-05-22T08:20:50.099Z,64.5021
2023-05-22T08:21:52.102Z,61.6003
2023-05-22T08:22:54.118Z,60.9190
2023-05-22T08:23:56.170Z,59.4675
2023-05-22T08:24:58.245Z,59.8578
2023-05-22T08:26:00.379Z,60.6996
2023-05-22T08:27:02.493Z,61.6265
2023-05-22T08:28:04.487Z,61.6170
2023-05-22T08:29:06.603Z,61.1147
2023-05-22T08:30:08.595Z,59.8698
2023-05-22T08:31:10.637Z,60.8331
2023-05-22T08:32:12.606Z,62.0651
2023-05-22T08:33:14.754Z,61.7501
2023-05-22T08:34:16.799Z,60.6225
2023-05-22T08:35:18.816Z,60.5398
2023-05-22T08:36:20.837Z,58.1104
2023-05-22T08:37:22.851Z,59.8092
2023-05-22T08:38:24.981Z,60.5751
2023-05-22T08:39:27.023Z,58.1195
2023-05-22T08:40:29.009Z,60.1458
2023-05-22T08:41:31.022Z,58.3906
2023-05-22T08:42:33.053Z,60.8519
2023-05-22T08:43:35.029Z,59.5602
2023-05-22T08:44:37.188Z,56.8306
2023-05-22T08:45:39.164Z,57.8942
2023-05-22T08:46:41.172Z,59.1454
2023-05-22T08:47:43.247Z,57.5000
2023-05-22T08:48:45.275Z,58.4781
2023-05-22T08:49:47.239Z,59.1829
2023-05-22T08:50:49.499Z,58.8108
2023-05-22T08:51:51.614Z,56.1059
2023-05-22T08:52:53.820Z,58.5170
2023-05-22T08:53:55.857Z,57.6412
2023-05-22T08:54:57.857Z,56.1126
2023-05-22T08:56:00.056Z,55.4468
2023-05-22T08:57:02.271Z,56.8996
2023-05-22T08:58:04.300Z,57.5260
2023-05-22T08:59:06.314Z,55.9259
2023-05-22T09:00:07.409Z,55.4479
2023-05-22T09:01:09.415Z,54.9480
2023-05-22T09:02:11.490Z,55.7665
2023-05-22T09:03:13.628Z,56.7835
2023-05-22T09:04:15.792Z,57.4105
2023-05-22T09:05:17.802Z,58.3533
2023-05-22T09:06:19.893Z,58.4018
2023-05-22T09:07:22.104Z,60.5932
2023-05-22T09:08:24.249Z,57.7098
2023-05-22T09:09:26.267Z,58.0427
2023-05-22T09:10:28.305Z,59.6035
2023-05-22T09:11:30.530Z,60.9618
2023-05-22T09:12:32.578Z,57.5949
2023-05-22T09:13:34.551Z,57.3504
2023-05-22T09:14:36.627Z,56.0233
2023-05-22T09:15:38.688Z,54.6995
2023-05-22T09:16:40.878Z,59.1266
2023-05-22T09:17:43.105Z,59.3246
2023-05-22T09:18:45.410Z,58.6746
2023-05-22T09:19:47.419Z,56.8398
2023-05-22T09:20:49.410Z,54.6282
2023-05-22T09:21:51.710Z,58.4629
2023-05-22T09:22:53.718Z,57.9966
2023-05-22T09:23:55.724Z,60.6148
2023-05-22T09:24:57.894Z,63.0191
2023-05-22T09:25:59.893Z,60.1929
2023-05-22T09:27:02.196Z,55.9734
2023-05-22T09:28:04.464Z,58.5688
2023-05-22T09:29:06.513Z,59.2149
2023-05-22T09:30:08.556Z,57.3693
2023-05-22T09:31:10.637Z,55.7729
2023-05-22T09:32:12.645Z,57.1223
2023-05-22T09:36:20.287Z,53.6370
2023-05-22T09:37:22.320Z,56.0173
2023-05-22T09:39:26.204Z,58.1712
2023-05-22T09:40:28.284Z,54.7681
2023-05-22T09:41:30.336Z,56.0068
2023-05-22T09:42:32.454Z,59.1807
2023-05-22T09:43:34.507Z,57.8135
2023-05-22T09:44:36.637Z,57.3653
2023-05-22T09:45:38.712Z,56.2740
2023-05-22T09:46:40.789Z,55.6222
2023-05-22T09:47:42.940Z,56.3111
2023-05-22T09:48:44.983Z,58.7606
2023-05-22T09:49:47.072Z,54.1642
2023-05-22T09:50:49.138Z,53.9085
2023-05-22T09:51:51.195Z,55.2802
2023-05-22T09:52:53.255Z,60.5803
2023-05-22T09:53:55.315Z,55.1714
2023-05-22T09:54:57.354Z,53.8941
2023-05-22T09:55:59.380Z,57.2343
2023-05-22T09:57:01.424Z,55.4271
2023-05-22T09:58:03.516Z,56.8141
2023-05-22T10:05:17.196Z,55.0988
2023-05-22T10:06:19.270Z,53.9121
2023-05-22T10:07:21.344Z,53.1287
2023-05-22T10:08:23.391Z,52.8769
2023-05-22T10:09:25.405Z,52.5787
2023-05-22T10:10:27.524Z,51.3333
2023-05-22T10:11:29.690Z,55.1384
2023-05-22T10:12:31.781Z,55.8830
2023-05-22T10:13:33.855Z,55.2835
2023-05-22T10:14:35.884Z,56.5222
2023-05-22T10:15:37.944Z,55.7529
2023-05-22T10:16:40.229Z,56.5516
2023-05-22T10:17:42.482Z,58.4373
2023-05-22T10:18:44.522Z,55.2322
2023-05-22T10:19:46.955Z,56.0492
2023-05-22T10:20:49.263Z,58.4091
2023-05-22T10:21:51.308Z,58.0057
2023-05-22T10:22:53.379Z,58.2816
2023-05-22T10:23:55.402Z,50.9125
2023-05-22T10:24:57.477Z,56.6240
2023-05-22T10:25:59.496Z,54.1121
2023-05-22T10:27:01.543Z,53.1684
2023-05-22T10:28:03.638Z,51.7752
2023-05-22T10:29:05.691Z,52.9372
2023-05-22T10:30:07.780Z,52.8452
2023-05-22T10:31:09.804Z,54.6873
2023-05-22T10:32:11.956Z,55.5960
2023-05-22T10:33:14.263Z,60.8311
2023-05-22T10:34:16.659Z,53.2803
2023-05-22T10:35:18.673Z,53.3051
2023-05-22T10:36:21.085Z,54.4397
2023-05-22T10:37:23.486Z,52.3196
2023-05-22T10:38:25.546Z,52.5870
2023-05-22T10:39:27.624Z,57.5280
2023-05-22T10:40:29.708Z,56.5773
2023-05-22T10:41:32.549Z,56.7113
2023-05-22T10:42:34.593Z,53.1959
2023-05-22T10:43:36.662Z,56.6734
2023-05-22T10:44:38.627Z,56.9721
2023-05-22T10:45:40.915Z,55.3322
2023-05-22T10:46:41.020Z,52.6105
2023-05-22T10:47:43.066Z,50.7166
2023-05-22T10:48:45.123Z,52.5773
2023-05-22T10:49:47.245Z,53.4745
2023-05-22T10:50:49.293Z,50.8838
2023-05-22T10:51:51.368Z,51.6267
2023-05-22T10:52:53.472Z,50.5844
2023-05-22T10:53:55.547Z,51.3949
2023-05-22T10:54:57.625Z,51.4812
2023-05-22T10:55:59.708Z,50.0099
2023-05-22T10:57:01.739Z,50.5258
2023-05-22T10:58:04.993Z,53.2283
2023-05-22T10:59:04.468Z,53.3656
2023-05-22T11:00:06.709Z,50.6486
2023-05-22T11:01:08.740Z,49.1834
2023-05-22T11:02:11.618Z,48.5284
2023-05-22T11:03:17.842Z,50.8146
2023-05-22T11:04:13.801Z,50.5034
2023-05-22T11:05:15.806Z,50.6510
2023-05-22T11:09:23.533Z,51.3522
2023-05-22T11:10:25.599Z,52.0360
2023-05-22T11:11:27.718Z,54.4919
2023-05-22T11:12:29.769Z,53.5734
2023-05-22T11:13:31.863Z,57.0191
2023-05-22T11:14:33.967Z,56.5612
2023-05-22T11:15:35.999Z,53.7353
2023-05-22T11:16:37.336Z,48.7538
2023-05-22T11:17:39.424Z,50.1202
2023-05-22T11:18:41.576Z,52.0697
2023-05-22T11:19:43.734Z,52.8396
2023-05-22T11:20:45.824Z,51.2309
2023-05-22T11:21:47.850Z,51.1642
2023-05-22T11:22:50.000Z,54.3375
2023-05-22T11:23:52.179Z,54.5129
2023-05-22T11:24:54.305Z,51.3791
2023-05-22T11:25:56.360Z,55.1911
2023-05-22T11:26:58.445Z,51.0287
2023-05-22T11:28:00.530Z,50.6182
2023-05-22T11:29:02.604Z,50.0610
2023-05-22T11:30:04.803Z,50.3360
2023-05-22T11:31:06.828Z,49.5455
2023-05-22T11:32:08.918Z,50.0667
2023-05-22T11:33:11.073Z,50.5333
2023-05-22T11:34:13.134Z,50.8528
2023-05-22T11:35:15.214Z,50.4064
2023-05-22T11:36:17.233Z,51.1160
2023-05-22T11:37:19.371Z,47.7709
2023-05-22T11:38:21.451Z,49.2334
2023-05-22T11:39:23.528Z,50.0682
2023-05-22T11:40:25.766Z,49.2633
2023-05-22T11:41:28.049Z,47.6858
2023-05-22T11:42:30.132Z,50.5162
2023-05-22T11:43:30.415Z,54.5915
2023-05-22T11:44:32.555Z,52.7597
2023-05-22T11:45:34.597Z,48.7056
2023-05-22T11:46:36.724Z,50.2910
2023-05-22T11:47:38.823Z,55.0465
2023-05-22T12:14:11.668Z,46.3142
2023-05-22T12:23:29.339Z,44.3196
2023-05-22T12:24:31.496Z,47.9493
2023-05-22T12:25:33.618Z,47.7316
2023-05-22T12:26:35.690Z,50.4580
2023-05-22T12:27:38.605Z,45.1120
2023-05-22T12:28:37.902Z,42.8595
2023-05-22T12:29:39.916Z,41.6318
2023-05-22T12:30:42.197Z,39.4081
2023-05-22T12:31:44.404Z,44.9436
2023-05-22T12:32:46.560Z,39.7215
2023-05-22T12:33:48.662Z,40.8042
2023-05-22T12:34:50.689Z,41.7318
2023-05-22T12:35:52.758Z,42.1028
2023-05-22T12:36:54.831Z,42.1636
2023-05-22T12:37:56.885Z,48.4163
2023-05-22T12:38:59.036Z,50.1169
2023-05-22T12:40:01.150Z,50.9246
2023-05-22T12:41:03.171Z,44.2401
2023-05-22T12:42:05.214Z,46.5557
2023-05-22T12:43:07.264Z,44.9113
2023-05-22T12:44:09.306Z,46.7679
2023-05-22T12:45:11.529Z,49.1686
2023-05-22T12:46:13.663Z,48.0295
2023-05-22T12:47:15.811Z,46.4982
2023-05-22T12:48:17.903Z,49.5611
2023-05-22T12:49:20.032Z,49.6735
2023-05-22T12:50:22.116Z,46.6612
2023-05-22T12:51:24.191Z,49.9580
2023-05-22T12:52:26.420Z,49.5026
2023-05-22T12:53:28.474Z,53.9562
2023-05-22T12:54:30.545Z,54.3651
2023-05-22T12:55:32.590Z,49.5911
2023-05-22T12:56:34.632Z,44.4065
2023-05-22T12:57:36.662Z,47.4949
2023-05-22T12:58:38.736Z,41.1152
2023-05-22T12:59:40.795Z,45.2721
2023-05-22T13:00:42.858Z,45.8558
2023-05-22T13:01:44.946Z,46.8661
2023-05-22T13:02:47.022Z,39.7731
2023-05-22T13:03:49.119Z,38.8347
2023-05-22T13:04:51.199Z,44.6987
2023-05-22T13:05:53.238Z,45.2072
2023-05-22T13:06:55.448Z,47.2294
2023-05-22T13:07:57.527Z,38.9971
2023-05-22T13:08:59.577Z,39.4157
2023-05-22T13:10:01.669Z,38.7802
2023-05-22T13:11:03.724Z,43.9209
2023-05-22T13:12:05.817Z,45.9218
2023-05-22T13:13:07.955Z,40.0769
2023-05-22T13:14:10.024Z,40.1921
2023-05-22T13:15:12.177Z,38.1633
2023-05-22T13:16:14.246Z,37.5586
2023-05-22T13:17:16.302Z,38.8901
2023-05-22T13:18:18.352Z,40.4363
2023-05-22T13:19:20.472Z,42.9295
2023-05-22T13:20:22.546Z,43.0507
2023-05-22T13:21:26.425Z,46.7688
2023-05-22T13:22:26.029Z,45.1458
2023-05-22T13:23:28.140Z,41.5414
2023-05-22T13:24:30.305Z,46.3516
2023-05-22T13:25:32.354Z,46.6078
2023-05-22T13:26:34.429Z,47.0599
2023-05-22T13:27:36.484Z,45.3698
2023-05-22T13:28:38.592Z,42.9896
2023-05-22T13:29:40.615Z,45.6005
2023-05-22T13:30:42.693Z,34.1110
2023-05-22T13:31:44.764Z,33.8100
2023-05-22T13:32:46.854Z,37.5280
2023-05-22T13:33:48.928Z,38.6909
2023-05-22T13:34:50.956Z,44.7442
2023-05-22T13:35:53.171Z,45.7113
2023-05-22T13:36:55.234Z,46.3585
2023-05-22T13:37:57.299Z,44.5167
2023-05-22T13:38:59.416Z,43.8032
2023-05-22T13:40:01.441Z,42.0436
2023-05-22T13:41:03.504Z,46.0576
2023-05-22T13:42:05.605Z,45.2348
2023-05-22T13:43:07.713Z,46.6308
2023-05-22T13:44:09.755Z,51.3049
2023-05-22T13:45:11.804Z,49.4837
2023-05-22T13:46:14.035Z,45.1234
2023-05-22T13:47:16.181Z,56.3176
2023-05-22T13:48:18.459Z,51.3323
2023-05-22T13:49:20.541Z,52.5035
2023-05-22T13:50:22.566Z,50.4322
2023-05-22T13:51:24.657Z,51.8115
2023-05-22T13:52:26.750Z,48.3955
2023-05-22T13:53:28.819Z,48.1165
2023-05-22T13:54:30.904Z,39.5617
2023-05-22T13:55:33.019Z,38.4620
2023-05-22T13:56:35.079Z,40.5504
2023-05-22T13:57:37.126Z,40.6734
2023-05-22T13:58:39.168Z,39.2608
2023-05-22T13:59:41.296Z,41.0670
2023-05-22T14:00:43.456Z,39.7676
2023-05-22T14:01:45.480Z,38.7579
2023-05-22T14:02:47.608Z,37.5970
2023-05-22T14:03:49.728Z,38.0129
2023-05-22T14:05:06.557Z,44.9147
2023-05-22T14:12:05.446Z,46.2307
2023-05-22T14:13:08.033Z,44.1014
2023-05-22T14:14:10.816Z,44.1353
2023-05-22T14:17:14.693Z,48.2451
2023-05-22T14:18:17.404Z,47.5099
2023-05-22T14:22:23.096Z,44.1054
2023-05-22T14:23:25.726Z,43.5644
2023-05-22T14:24:27.739Z,42.8851
2023-05-22T14:27:33.464Z,46.4234
2023-05-22T14:28:36.116Z,48.3537
2023-05-22T14:29:36.850Z,48.0853
2023-05-22T15:26:20.361Z,47.4569
2023-05-22T15:29:26.415Z,46.9494
2023-05-22T15:42:52.217Z,57.1030
2023-05-22T15:43:54.293Z,56.4921
2023-05-22T15:44:56.432Z,49.7514
2023-05-22T15:45:58.719Z,55.0777
2023-05-22T15:47:00.833Z,50.9883
2023-05-22T15:48:02.989Z,51.1543
2023-05-22T15:49:05.249Z,48.5795
2023-05-22T15:50:07.421Z,56.4063
2023-05-22T15:51:09.499Z,56.5683
2023-05-22T15:52:11.569Z,56.6836
2023-05-22T15:53:13.671Z,61.1845
2023-05-22T15:54:15.780Z,62.6232
2023-05-22T15:55:17.998Z,64.8101
2023-05-22T15:56:20.043Z,67.6129
2023-05-22T15:57:22.221Z,63.3804
2023-05-22T15:58:24.395Z,57.9346
2023-05-22T15:59:26.546Z,58.7014
2023-05-22T16:00:28.633Z,64.0827
2023-05-22T16:01:30.761Z,65.0864
2023-05-22T16:02:33.440Z,66.4820
2023-05-22T16:03:35.926Z,66.3928
2023-05-22T16:04:38.554Z,68.6030
2023-05-22T16:05:40.945Z,69.4062
2023-05-22T16:06:43.311Z,67.7570
2023-05-22T16:07:45.444Z,65.5644
2023-05-22T16:08:47.565Z,65.8264
2023-05-22T16:09:49.668Z,56.2421
2023-05-22T16:10:51.808Z,52.4539
2023-05-22T16:11:54.020Z,48.7340
2023-05-22T16:12:56.081Z,44.8016
2023-05-22T16:13:58.220Z,49.7674
2023-05-22T16:15:01.481Z,46.8749
2023-05-22T16:16:01.762Z,48.5876
2023-05-22T16:17:03.832Z,51.4316
2023-05-22T16:18:05.982Z,47.9013
2023-05-22T16:19:08.115Z,46.1436
2023-05-22T16:24:18.148Z,38.9491
2023-05-22T16:25:20.246Z,40.1256
2023-05-22T16:26:22.328Z,43.7177
2023-05-22T16:27:24.476Z,47.5266
2023-05-22T16:28:26.575Z,47.2663
2023-05-22T16:29:28.678Z,47.5421
2023-05-22T16:30:30.833Z,47.8483
2023-05-22T16:31:33.059Z,51.4730
2023-05-22T16:32:35.185Z,39.6115
2023-05-22T16:33:37.362Z,45.9422
2023-05-22T16:34:39.626Z,40.2007
2023-05-22T16:35:41.861Z,42.0664
2023-05-22T16:36:44.078Z,37.6338
2023-05-22T16:37:46.181Z,36.9655
2023-05-22T16:38:48.361Z,37.6713
2023-05-22T16:39:50.477Z,42.3356
2023-05-22T16:40:52.596Z,43.2531
2023-05-22T16:41:54.637Z,47.2324
2023-05-22T16:42:56.767Z,43.1130
2023-05-22T16:43:58.827Z,46.4356
2023-05-22T16:45:00.922Z,45.2041
2023-05-22T16:46:03.089Z,45.1311
2023-05-22T16:47:05.212Z,48.6229
2023-05-22T16:48:07.293Z,47.3797
2023-05-22T16:49:07.825Z,48.1897
2023-05-22T16:50:10.096Z,43.2998
2023-05-22T16:51:12.356Z,49.6205
2023-05-22T16:52:14.488Z,45.7627
2023-05-22T16:53:16.624Z,39.8676
2023-05-22T16:54:18.762Z,44.1011
2023-05-22T16:55:20.883Z,42.4891
2023-05-22T16:56:23.035Z,41.7393
2023-05-22T16:57:25.159Z,37.8854
2023-05-22T16:58:27.426Z,37.6539
2023-05-22T16:59:29.596Z,35.2786
2023-05-22T17:00:31.903Z,36.4272
2023-05-22T17:01:34.150Z,46.0107
2023-05-22T17:02:36.307Z,39.6844
2023-05-22T17:03:38.583Z,38.4014
2023-05-22T17:04:40.895Z,37.8252